Weather reports worldwide

Advertisment
Gravesend, United Kingdom (3784): temperature & dewpoint: 19.06.2018 03:00:00 - 25.06.2018 03:00:00 (BST)Gravesend, United Kingdom (3784): wind speed: 19.06.2018 03:00:00 - 25.06.2018 03:00:00 (BST)Gravesend, United Kingdom (3784): wind direction: 19.06.2018 03:00:00 - 25.06.2018 03:00:00 (BST)Gravesend, United Kingdom (3784): reduced air pressure: 19.06.2018 03:00:00 - 25.06.2018 03:00:00 (BST)
Date & Time tt [°C] td [°C] ff [km/h] ff [kn] dd ppp [hPa]
25.06.2018 03:00:00 - - - - - -
25.06.2018 02:00:00 11,3 9,6 4 2 SSE 1025,8
25.06.2018 01:00:00 12,7 10,1 4 2 ESE 1025,8
25.06.2018 00:00:00 14,5 11,4 8 4 ESE 1025,8
24.06.2018 23:00:00 15,4 12,1 9 5 E 1025,8
24.06.2018 22:00:00 16,0 11,7 15 8 ENE 1025,4
24.06.2018 21:00:00 17,3 10,6 13 7 ENE 1024,7
24.06.2018 20:00:00 19,8 11,6 13 7 E 1024,4
24.06.2018 19:00:00 21,1 11,2 15 8 E 1024,4
24.06.2018 18:00:00 22,5 11,6 16 9 ENE 1024,4
24.06.2018 17:00:00 23,7 11,2 11 6 ESE 1024,5
24.06.2018 16:00:00 24,0 10,9 9 5 E 1024,7
24.06.2018 15:00:00 23,1 8,9 9 5 E 1024,9
24.06.2018 14:00:00 22,7 9,4 8 4 SE 1025,0
24.06.2018 13:00:00 22,1 9,7 8 4 SE 1025,4
24.06.2018 12:00:00 21,0 11,2 13 7 SE 1025,6
24.06.2018 11:00:00 20,1 11,9 11 6 SE 1025,5
24.06.2018 10:00:00 19,0 12,0 5 3 ESE 1025,5
24.06.2018 09:00:00 18,3 11,8 5 3 ENE 1025,5
24.06.2018 08:00:00 16,9 12,0 4 2 E 1025,3
24.06.2018 07:00:00 13,7 13,5 0 0 N 1025,1
24.06.2018 06:00:00 9,6 9,2 2 1 WSW 1024,9
24.06.2018 05:00:00 9,5 8,7 4 2 SSE 1024,8
24.06.2018 04:00:00 10,4 9,4 4 2 SE 1024,7
24.06.2018 03:00:00 11,8 10,3 4 2 S 1025,0
24.06.2018 02:00:00 13,7 12,0 8 4 ENE 1025,2
24.06.2018 01:00:00 15,1 12,7 8 4 ENE 1025,5
24.06.2018 00:00:00 15,6 12,5 9 5 E 1025,8
23.06.2018 23:00:00 16,6 11,7 9 5 E 1025,9
23.06.2018 22:00:00 18,4 8,4 9 5 N 1025,8
23.06.2018 21:00:00 19,4 7,8 11 6 NNW 1025,4
23.06.2018 20:00:00 20,5 7,3 15 8 NNW 1025,4
23.06.2018 19:00:00 20,9 6,6 13 7 NNW 1025,3
23.06.2018 18:00:00 21,4 4,7 15 8 NNW 1025,6
23.06.2018 17:00:00 22,2 5,2 13 7 N 1026,0
23.06.2018 16:00:00 22,4 4,1 16 9 WNW 1026,4
23.06.2018 15:00:00 23,3 4,3 21 11 W 1026,6
23.06.2018 14:00:00 23,0 3,2 16 9 WNW 1027,2
23.06.2018 13:00:00 21,9 3,4 18 10 W 1027,7
23.06.2018 12:00:00 21,3 4,4 21 11 W 1028,0
23.06.2018 11:00:00 20,2 6,8 13 7 W 1028,3
23.06.2018 10:00:00 18,2 8,4 15 8 W 1028,5
23.06.2018 09:00:00 16,9 10,9 13 7 WSW 1028,8
23.06.2018 08:00:00 15,1 11,2 15 8 WSW 1029,1
23.06.2018 07:00:00 13,4 10,4 13 7 WSW 1029,1
23.06.2018 06:00:00 12,2 10,0 9 5 WSW 1029,4
23.06.2018 05:00:00 10,9 9,2 9 5 WSW 1029,3
23.06.2018 04:00:00 11,4 9,0 11 6 WSW 1029,3
23.06.2018 03:00:00 8,3 7,5 4 2 WSW 1029,4
23.06.2018 02:00:00 7,9 6,8 4 2 WSW 1029,6
23.06.2018 01:00:00 9,2 7,6 4 2 SSE 1030,0
23.06.2018 00:00:00 10,5 8,3 5 3 SSE 1030,1
22.06.2018 23:00:00 12,8 9,5 9 5 SE 1030,5
22.06.2018 22:00:00 13,9 10,2 13 7 ENE 1030,5
22.06.2018 21:00:00 15,0 9,7 15 8 ENE 1029,9
22.06.2018 20:00:00 17,2 10,0 16 9 ENE 1029,6
22.06.2018 19:00:00 19,1 9,7 18 10 ENE 1029,6
22.06.2018 18:00:00 20,7 8,5 13 7 NE 1029,1
22.06.2018 17:00:00 21,0 5,1 15 8 N 1029,3
22.06.2018 16:00:00 21,1 5,9 11 6 N 1029,5
22.06.2018 15:00:00 21,0 5,3 13 7 N 1029,8
22.06.2018 14:00:00 20,5 7,3 9 5 NW 1030,0
22.06.2018 13:00:00 19,9 7,8 11 6 N 1030,2
22.06.2018 12:00:00 19,2 8,5 15 8 NNW 1030,2
22.06.2018 11:00:00 18,2 7,8 8 4 NW 1030,2
22.06.2018 10:00:00 17,0 7,9 9 5 N 1030,5
22.06.2018 09:00:00 15,0 7,9 9 5 NW 1030,6
22.06.2018 08:00:00 13,9 8,0 9 5 NW 1030,2
22.06.2018 07:00:00 12,6 8,1 13 7 WNW 1029,9
22.06.2018 06:00:00 11,6 7,1 13 7 W 1029,6
22.06.2018 05:00:00 11,5 6,8 11 6 W 1029,4
22.06.2018 04:00:00 11,7 6,4 15 8 W 1029,3
22.06.2018 03:00:00 11,9 6,4 11 6 W 1029,1
22.06.2018 02:00:00 12,2 6,1 9 5 WNW 1029,0
22.06.2018 01:00:00 9,5 6,3 5 3 W 1029,1
22.06.2018 00:00:00 10,5 7,1 5 3 SSE 1029,0
21.06.2018 23:00:00 11,1 6,5 11 6 SSE 1028,7
21.06.2018 22:00:00 14,4 5,7 8 4 N 1028,3
21.06.2018 21:00:00 16,3 4,8 9 5 N 1027,8
21.06.2018 20:00:00 17,7 4,2 11 6 N 1027,5
21.06.2018 19:00:00 18,5 3,4 16 9 NNW 1027,2
21.06.2018 18:00:00 19,1 4,3 16 9 NNW 1026,9
21.06.2018 17:00:00 19,1 4,3 16 9 NNW 1026,6
21.06.2018 16:00:00 18,5 4,1 18 10 N 1026,3
21.06.2018 15:00:00 17,9 4,0 18 10 NNW 1026,0
21.06.2018 14:00:00 18,5 4,4 16 9 NW 1025,6
21.06.2018 13:00:00 16,9 4,8 18 10 NNW 1025,3
21.06.2018 12:00:00 17,5 5,8 18 10 NW 1025,0
21.06.2018 11:00:00 16,6 7,1 22 12 NW 1024,6
21.06.2018 10:00:00 15,6 7,0 18 10 NW 1024,1
21.06.2018 09:00:00 14,3 6,2 24 13 NW 1023,7
21.06.2018 08:00:00 13,3 6,5 22 12 WNW 1023,2
21.06.2018 07:00:00 13,1 7,0 16 9 NW 1022,8
21.06.2018 06:00:00 12,2 7,1 16 9 WNW 1022,3
21.06.2018 05:00:00 12,0 6,5 15 8 WNW 1021,8
21.06.2018 04:00:00 12,6 6,4 16 9 WNW 1021,5
21.06.2018 03:00:00 13,6 6,1 16 9 WNW 1021,2
21.06.2018 02:00:00 14,8 7,5 16 9 NW 1020,7
21.06.2018 01:00:00 15,7 9,2 21 11 NW 1020,0
21.06.2018 00:00:00 17,1 10,9 22 12 NW 1019,4
20.06.2018 23:00:00 19,1 14,3 15 8 W 1018,9
20.06.2018 22:00:00 19,5 14,4 16 9 W 1018,6
20.06.2018 21:00:00 21,0 15,6 26 14 W 1018,1
20.06.2018 20:00:00 22,6 15,9 22 12 W 1017,7
20.06.2018 19:00:00 23,6 15,5 16 9 SW 1017,6
20.06.2018 18:00:00 24,7 16,2 16 9 SW 1017,7
20.06.2018 17:00:00 25,1 16,5 16 9 SW 1018,1
20.06.2018 16:00:00 24,0 16,3 18 10 WSW 1018,8
20.06.2018 15:00:00 23,6 16,0 21 11 SW 1019,2
20.06.2018 14:00:00 23,1 16,0 18 10 SW 1019,5
20.06.2018 13:00:00 21,5 15,1 21 11 WSW 1020,0
20.06.2018 12:00:00 20,6 15,1 22 12 WSW 1020,3
20.06.2018 11:00:00 20,2 15,4 21 11 S 1020,3
20.06.2018 10:00:00 18,2 14,7 16 9 SSW 1020,7
20.06.2018 09:00:00 16,9 14,2 15 8 SW 1021,2
20.06.2018 08:00:00 16,4 14,5 16 9 SW 1021,1
20.06.2018 07:00:00 15,9 14,6 15 8 SSW 1020,9
20.06.2018 06:00:00 15,3 14,6 15 8 SSW 1020,8
20.06.2018 05:00:00 14,7 14,3 13 7 SSW 1021,0
20.06.2018 04:00:00 14,5 13,8 9 5 SSW 1021,0
20.06.2018 03:00:00 15,0 14,1 8 4 SW 1021,3
20.06.2018 02:00:00 15,3 14,4 5 3 SSW 1021,5
20.06.2018 01:00:00 15,2 14,2 8 4 SSW 1022,0
20.06.2018 00:00:00 16,3 14,8 9 5 SSW 1022,3
19.06.2018 23:00:00 17,6 15,2 9 5 SSW 1022,4
19.06.2018 22:00:00 18,7 15,4 8 4 SSW 1022,3
19.06.2018 21:00:00 20,6 15,8 15 8 SSW 1021,8
19.06.2018 20:00:00 22,5 16,3 18 10 SSW 1021,7
19.06.2018 19:00:00 23,5 16,5 16 9 SW 1021,6
19.06.2018 18:00:00 23,7 17,2 16 9 SSW 1021,6
19.06.2018 17:00:00 23,4 16,3 15 8 SSW 1022,0
19.06.2018 16:00:00 23,9 16,0 16 9 WSW 1022,2
19.06.2018 15:00:00 24,5 16,0 15 8 SW 1022,4
19.06.2018 14:00:00 23,4 15,5 15 8 WSW 1022,6
19.06.2018 13:00:00 23,8 16,0 13 7 WSW 1022,9
19.06.2018 12:00:00 21,2 15,0 13 7 WSW 1023,0
19.06.2018 11:00:00 21,6 14,2 8 4 WSW 1022,9
19.06.2018 10:00:00 20,1 15,0 11 6 WSW 1023,2
19.06.2018 09:00:00 18,9 14,4 13 7 W 1023,3
19.06.2018 08:00:00 18,2 14,4 16 9 WSW 1022,8
19.06.2018 07:00:00 18,3 14,8 18 10 W 1022,3
19.06.2018 06:00:00 18,4 15,3 21 11 WSW 1021,8
19.06.2018 05:00:00 18,5 15,1 22 12 WSW 1021,4
19.06.2018 04:00:00 18,5 15,4 16 9 WSW 1020,9
19.06.2018 03:00:00 18,7 15,1 28 15 WSW 1020,7

tt = temperature
td = dewpoint
ff = wind speed
dd = wind direction
ppp = reduced air pressure

Next stations